sensor_id;sensor_type;location;lat;lon;timestamp;temperature;humidity
48589;DHT22;34369;51.174;6.738;2024-03-22T00:02:12;10.40;65.60
48589;DHT22;34369;51.174;6.738;2024-03-22T00:04:44;10.40;65.50
48589;DHT22;34369;51.174;6.738;2024-03-22T00:07:17;10.40;65.60
48589;DHT22;34369;51.174;6.738;2024-03-22T00:09:48;10.40;65.60
48589;DHT22;34369;51.174;6.738;2024-03-22T00:12:22;10.40;65.60
48589;DHT22;34369;51.174;6.738;2024-03-22T00:14:53;10.40;65.70
48589;DHT22;34369;51.174;6.738;2024-03-22T00:17:26;10.40;65.70
48589;DHT22;34369;51.174;6.738;2024-03-22T00:19:57;10.40;65.70
48589;DHT22;34369;51.174;6.738;2024-03-22T00:22:29;10.40;65.80
48589;DHT22;34369;51.174;6.738;2024-03-22T00:25:01;10.40;65.80
48589;DHT22;34369;51.174;6.738;2024-03-22T00:27:34;10.40;65.80
48589;DHT22;34369;51.174;6.738;2024-03-22T00:30:07;10.40;65.90
48589;DHT22;34369;51.174;6.738;2024-03-22T00:32:39;10.40;65.90
48589;DHT22;34369;51.174;6.738;2024-03-22T00:35:11;10.40;66.00
48589;DHT22;34369;51.174;6.738;2024-03-22T00:37:43;10.30;66.00
48589;DHT22;34369;51.174;6.738;2024-03-22T00:40:15;10.30;66.10
48589;DHT22;34369;51.174;6.738;2024-03-22T00:42:49;10.40;66.10
48589;DHT22;34369;51.174;6.738;2024-03-22T00:45:20;10.30;66.10
48589;DHT22;34369;51.174;6.738;2024-03-22T00:47:54;10.30;66.10
48589;DHT22;34369;51.174;6.738;2024-03-22T00:50:25;10.30;66.20
48589;DHT22;34369;51.174;6.738;2024-03-22T00:52:58;10.30;66.20
48589;DHT22;34369;51.174;6.738;2024-03-22T00:55:29;10.30;66.20
48589;DHT22;34369;51.174;6.738;2024-03-22T00:58:03;10.30;66.20
48589;DHT22;34369;51.174;6.738;2024-03-22T01:00:34;10.30;66.30
48589;DHT22;34369;51.174;6.738;2024-03-22T01:03:07;10.30;66.30
48589;DHT22;34369;51.174;6.738;2024-03-22T01:05:39;10.30;66.40
48589;DHT22;34369;51.174;6.738;2024-03-22T01:08:12;10.30;66.40
48589;DHT22;34369;51.174;6.738;2024-03-22T01:10:44;10.30;66.50
48589;DHT22;34369;51.174;6.738;2024-03-22T01:13:19;10.30;66.50
48589;DHT22;34369;51.174;6.738;2024-03-22T01:15:51;10.30;66.50
48589;DHT22;34369;51.174;6.738;2024-03-22T01:18:26;10.30;66.50
48589;DHT22;34369;51.174;6.738;2024-03-22T01:20:57;10.30;66.50
48589;DHT22;34369;51.174;6.738;2024-03-22T01:23:30;10.30;66.50
48589;DHT22;34369;51.174;6.738;2024-03-22T01:26:02;10.30;66.60
48589;DHT22;34369;51.174;6.738;2024-03-22T01:28:36;10.30;66.60
48589;DHT22;34369;51.174;6.738;2024-03-22T01:31:06;10.30;66.60
48589;DHT22;34369;51.174;6.738;2024-03-22T01:33:39;10.30;66.60
48589;DHT22;34369;51.174;6.738;2024-03-22T01:36:11;10.30;66.60
48589;DHT22;34369;51.174;6.738;2024-03-22T01:38:43;10.30;66.60
48589;DHT22;34369;51.174;6.738;2024-03-22T01:41:15;10.30;66.60
48589;DHT22;34369;51.174;6.738;2024-03-22T01:43:50;10.30;66.60
48589;DHT22;34369;51.174;6.738;2024-03-22T01:46:21;10.30;66.60
48589;DHT22;34369;51.174;6.738;2024-03-22T01:48:53;10.30;66.60
48589;DHT22;34369;51.174;6.738;2024-03-22T01:51:24;10.30;66.50
48589;DHT22;34369;51.174;6.738;2024-03-22T01:53:57;10.30;66.50
48589;DHT22;34369;51.174;6.738;2024-03-22T01:56:30;10.30;66.50
48589;DHT22;34369;51.174;6.738;2024-03-22T01:59:05;10.30;66.60
48589;DHT22;34369;51.174;6.738;2024-03-22T02:01:38;10.30;66.60
48589;DHT22;34369;51.174;6.738;2024-03-22T02:04:11;10.30;66.60
48589;DHT22;34369;51.174;6.738;2024-03-22T02:06:42;10.30;66.60
48589;DHT22;34369;51.174;6.738;2024-03-22T02:09:17;10.20;66.60
48589;DHT22;34369;51.174;6.738;2024-03-22T02:11:50;10.20;66.60
48589;DHT22;34369;51.174;6.738;2024-03-22T02:14:23;10.30;66.60
48589;DHT22;34369;51.174;6.738;2024-03-22T02:16:56;10.20;66.70
48589;DHT22;34369;51.174;6.738;2024-03-22T02:19:27;10.20;66.70
48589;DHT22;34369;51.174;6.738;2024-03-22T02:22:00;10.20;66.70
48589;DHT22;34369;51.174;6.738;2024-03-22T02:24:32;10.20;66.70
48589;DHT22;34369;51.174;6.738;2024-03-22T02:27:04;10.20;66.70
48589;DHT22;34369;51.174;6.738;2024-03-22T02:29:37;10.20;66.80
48589;DHT22;34369;51.174;6.738;2024-03-22T02:32:09;10.20;66.80
48589;DHT22;34369;51.174;6.738;2024-03-22T02:34:41;10.20;66.80
48589;DHT22;34369;51.174;6.738;2024-03-22T02:37:13;10.20;66.80
48589;DHT22;34369;51.174;6.738;2024-03-22T02:39:46;10.20;66.80
48589;DHT22;34369;51.174;6.738;2024-03-22T02:42:18;10.20;66.90
48589;DHT22;34369;51.174;6.738;2024-03-22T02:44:50;10.30;66.90
48589;DHT22;34369;51.174;6.738;2024-03-22T02:47:22;10.20;66.90
48589;DHT22;34369;51.174;6.738;2024-03-22T02:49:54;10.30;66.90
48589;DHT22;34369;51.174;6.738;2024-03-22T02:52:26;10.30;66.80
48589;DHT22;34369;51.174;6.738;2024-03-22T02:54:58;10.30;66.90
48589;DHT22;34369;51.174;6.738;2024-03-22T02:57:30;10.30;66.90
48589;DHT22;34369;51.174;6.738;2024-03-22T03:00:03;10.30;66.90
48589;DHT22;34369;51.174;6.738;2024-03-22T03:02:36;10.30;66.80
48589;DHT22;34369;51.174;6.738;2024-03-22T03:05:09;10.30;66.90
48589;DHT22;34369;51.174;6.738;2024-03-22T03:07:41;10.30;66.90
48589;DHT22;34369;51.174;6.738;2024-03-22T03:10:14;10.30;66.80
48589;DHT22;34369;51.174;6.738;2024-03-22T03:12:47;10.30;66.80
48589;DHT22;34369;51.174;6.738;2024-03-22T03:15:18;10.30;66.80
48589;DHT22;34369;51.174;6.738;2024-03-22T03:17:51;10.30;66.70
48589;DHT22;34369;51.174;6.738;2024-03-22T03:20:23;10.30;66.70
48589;DHT22;34369;51.174;6.738;2024-03-22T03:22:58;10.30;66.60
48589;DHT22;34369;51.174;6.738;2024-03-22T03:25:33;10.30;66.50
48589;DHT22;34369;51.174;6.738;2024-03-22T03:28:09;10.20;66.50
48589;DHT22;34369;51.174;6.738;2024-03-22T03:30:41;10.20;66.40
48589;DHT22;34369;51.174;6.738;2024-03-22T03:33:15;10.20;66.40
48589;DHT22;34369;51.174;6.738;2024-03-22T03:35:47;10.20;66.40
48589;DHT22;34369;51.174;6.738;2024-03-22T03:38:21;10.10;66.40
48589;DHT22;34369;51.174;6.738;2024-03-22T03:40:57;10.10;66.50
48589;DHT22;34369;51.174;6.738;2024-03-22T03:43:31;10.00;66.60
48589;DHT22;34369;51.174;6.738;2024-03-22T03:46:04;10.00;66.60
48589;DHT22;34369;51.174;6.738;2024-03-22T03:48:38;10.00;66.60
48589;DHT22;34369;51.174;6.738;2024-03-22T03:51:13;10.00;66.70
48589;DHT22;34369;51.174;6.738;2024-03-22T03:53:47;10.00;66.70
48589;DHT22;34369;51.174;6.738;2024-03-22T03:56:20;10.00;66.70
48589;DHT22;34369;51.174;6.738;2024-03-22T03:58:54;9.90;66.70
48589;DHT22;34369;51.174;6.738;2024-03-22T04:01:27;9.90;66.70
48589;DHT22;34369;51.174;6.738;2024-03-22T04:04:04;9.90;66.80
48589;DHT22;34369;51.174;6.738;2024-03-22T04:06:36;9.80;66.80
48589;DHT22;34369;51.174;6.738;2024-03-22T04:09:09;9.80;66.90
48589;DHT22;34369;51.174;6.738;2024-03-22T04:11:44;9.70;66.80
48589;DHT22;34369;51.174;6.738;2024-03-22T04:14:19;9.70;67.00
48589;DHT22;34369;51.174;6.738;2024-03-22T04:16:52;9.70;67.10
48589;DHT22;34369;51.174;6.738;2024-03-22T04:19:26;9.60;67.10
48589;DHT22;34369;51.174;6.738;2024-03-22T04:21:59;9.60;67.20
48589;DHT22;34369;51.174;6.738;2024-03-22T04:24:35;9.60;67.30
48589;DHT22;34369;51.174;6.738;2024-03-22T04:27:09;9.50;67.40
48589;DHT22;34369;51.174;6.738;2024-03-22T04:29:43;9.50;67.50
48589;DHT22;34369;51.174;6.738;2024-03-22T04:32:19;9.50;67.60
48589;DHT22;34369;51.174;6.738;2024-03-22T04:34:54;9.50;67.80
48589;DHT22;34369;51.174;6.738;2024-03-22T04:37:27;9.50;67.50
48589;DHT22;34369;51.174;6.738;2024-03-22T04:40:00;9.40;67.70
48589;DHT22;34369;51.174;6.738;2024-03-22T04:42:35;9.40;67.90
48589;DHT22;34369;51.174;6.738;2024-03-22T04:45:09;9.40;68.20
48589;DHT22;34369;51.174;6.738;2024-03-22T04:47:44;9.40;68.20
48589;DHT22;34369;51.174;6.738;2024-03-22T04:50:17;9.40;68.40
48589;DHT22;34369;51.174;6.738;2024-03-22T04:52:50;9.40;68.40
48589;DHT22;34369;51.174;6.738;2024-03-22T04:55:22;9.40;68.60
48589;DHT22;34369;51.174;6.738;2024-03-22T04:58:00;9.40;68.70
48589;DHT22;34369;51.174;6.738;2024-03-22T05:00:33;9.40;68.80
48589;DHT22;34369;51.174;6.738;2024-03-22T05:03:08;9.40;68.80
48589;DHT22;34369;51.174;6.738;2024-03-22T05:05:41;9.50;68.80
48589;DHT22;34369;51.174;6.738;2024-03-22T05:08:16;9.50;68.90
48589;DHT22;34369;51.174;6.738;2024-03-22T05:10:49;9.50;69.00
48589;DHT22;34369;51.174;6.738;2024-03-22T05:13:26;9.50;69.00
48589;DHT22;34369;51.174;6.738;2024-03-22T05:15:59;9.60;69.00
48589;DHT22;34369;51.174;6.738;2024-03-22T05:18:33;9.60;68.90
48589;DHT22;34369;51.174;6.738;2024-03-22T05:21:05;9.60;69.00
48589;DHT22;34369;51.174;6.738;2024-03-22T05:23:38;9.60;69.00
48589;DHT22;34369;51.174;6.738;2024-03-22T05:26:11;9.60;68.90
48589;DHT22;34369;51.174;6.738;2024-03-22T05:28:47;9.70;68.90
48589;DHT22;34369;51.174;6.738;2024-03-22T05:31:20;9.70;69.00
48589;DHT22;34369;51.174;6.738;2024-03-22T05:33:54;9.70;68.90
48589;DHT22;34369;51.174;6.738;2024-03-22T05:36:27;9.70;68.90
48589;DHT22;34369;51.174;6.738;2024-03-22T05:39:00;9.70;69.00
48589;DHT22;34369;51.174;6.738;2024-03-22T05:41:33;9.80;69.00
48589;DHT22;34369;51.174;6.738;2024-03-22T05:44:09;9.80;69.00
48589;DHT22;34369;51.174;6.738;2024-03-22T05:46:41;9.80;69.00
48589;DHT22;34369;51.174;6.738;2024-03-22T05:49:14;9.90;69.00
48589;DHT22;34369;51.174;6.738;2024-03-22T05:51:47;9.90;69.00
48589;DHT22;34369;51.174;6.738;2024-03-22T05:54:22;10.00;69.00
48589;DHT22;34369;51.174;6.738;2024-03-22T05:56:54;10.00;69.00
48589;DHT22;34369;51.174;6.738;2024-03-22T05:59:30;10.00;69.00
48589;DHT22;34369;51.174;6.738;2024-03-22T06:02:04;10.00;69.10
48589;DHT22;34369;51.174;6.738;2024-03-22T06:04:38;10.10;69.00
48589;DHT22;34369;51.174;6.738;2024-03-22T06:07:10;10.10;68.90
48589;DHT22;34369;51.174;6.738;2024-03-22T06:09:46;10.20;69.00
48589;DHT22;34369;51.174;6.738;2024-03-22T06:12:19;10.30;68.90
48589;DHT22;34369;51.174;6.738;2024-03-22T06:14:54;10.30;68.90
48589;DHT22;34369;51.174;6.738;2024-03-22T06:17:27;10.40;68.80
48589;DHT22;34369;51.174;6.738;2024-03-22T06:20:00;10.40;68.80
48589;DHT22;34369;51.174;6.738;2024-03-22T06:22:33;10.50;68.70
48589;DHT22;34369;51.174;6.738;2024-03-22T06:25:08;10.50;68.70
48589;DHT22;34369;51.174;6.738;2024-03-22T06:27:40;10.60;68.60
48589;DHT22;34369;51.174;6.738;2024-03-22T06:30:16;10.60;68.60
48589;DHT22;34369;51.174;6.738;2024-03-22T06:32:49;10.80;68.50
48589;DHT22;34369;51.174;6.738;2024-03-22T06:35:22;10.80;68.50
48589;DHT22;34369;51.174;6.738;2024-03-22T06:37:55;10.90;68.40
48589;DHT22;34369;51.174;6.738;2024-03-22T06:40:30;11.00;68.40
48589;DHT22;34369;51.174;6.738;2024-03-22T06:43:03;11.10;68.10
48589;DHT22;34369;51.174;6.738;2024-03-22T06:45:40;11.20;68.00
48589;DHT22;34369;51.174;6.738;2024-03-22T06:48:14;11.30;68.00
48589;DHT22;34369;51.174;6.738;2024-03-22T06:50:48;11.40;67.80
48589;DHT22;34369;51.174;6.738;2024-03-22T06:53:20;11.50;67.50
48589;DHT22;34369;51.174;6.738;2024-03-22T06:55:54;11.60;67.40
48589;DHT22;34369;51.174;6.738;2024-03-22T06:58:27;11.70;67.30
48589;DHT22;34369;51.174;6.738;2024-03-22T07:01:05;11.80;67.20
48589;DHT22;34369;51.174;6.738;2024-03-22T07:03:40;11.90;66.80
48589;DHT22;34369;51.174;6.738;2024-03-22T07:06:18;11.90;66.70
48589;DHT22;34369;51.174;6.738;2024-03-22T07:08:51;12.00;66.40
48589;DHT22;34369;51.174;6.738;2024-03-22T07:11:23;12.10;66.30
48589;DHT22;34369;51.174;6.738;2024-03-22T07:13:59;12.20;66.10
48589;DHT22;34369;51.174;6.738;2024-03-22T07:16:33;12.20;66.00
48589;DHT22;34369;51.174;6.738;2024-03-22T07:19:08;12.30;65.80
48589;DHT22;34369;51.174;6.738;2024-03-22T07:21:40;12.40;65.70
48589;DHT22;34369;51.174;6.738;2024-03-22T07:24:15;12.40;65.60
48589;DHT22;34369;51.174;6.738;2024-03-22T07:26:49;12.50;65.50
48589;DHT22;34369;51.174;6.738;2024-03-22T07:29:26;12.50;65.40
48589;DHT22;34369;51.174;6.738;2024-03-22T07:32:00;12.50;65.30
48589;DHT22;34369;51.174;6.738;2024-03-22T07:34:34;12.50;65.30
48589;DHT22;34369;51.174;6.738;2024-03-22T07:37:08;12.70;65.30
48589;DHT22;34369;51.174;6.738;2024-03-22T07:39:43;12.70;65.60
48589;DHT22;34369;51.174;6.738;2024-03-22T07:42:15;12.80;65.70
48589;DHT22;34369;51.174;6.738;2024-03-22T07:44:49;13.00;65.60
48589;DHT22;34369;51.174;6.738;2024-03-22T07:47:23;13.10;65.30
48589;DHT22;34369;51.174;6.738;2024-03-22T07:49:58;13.20;65.00
48589;DHT22;34369;51.174;6.738;2024-03-22T07:52:30;13.30;64.80
48589;DHT22;34369;51.174;6.738;2024-03-22T07:55:04;13.50;64.40
48589;DHT22;34369;51.174;6.738;2024-03-22T07:57:36;13.50;64.40
48589;DHT22;34369;51.174;6.738;2024-03-22T08:00:11;13.60;64.30
48589;DHT22;34369;51.174;6.738;2024-03-22T08:02:46;13.70;63.90
48589;DHT22;34369;51.174;6.738;2024-03-22T08:05:19;13.80;63.60
48589;DHT22;34369;51.174;6.738;2024-03-22T08:07:51;13.90;63.30
48589;DHT22;34369;51.174;6.738;2024-03-22T08:10:25;13.90;63.00
48589;DHT22;34369;51.174;6.738;2024-03-22T08:12:59;14.00;63.00
48589;DHT22;34369;51.174;6.738;2024-03-22T08:15:33;14.00;62.60
48589;DHT22;34369;51.174;6.738;2024-03-22T08:18:07;14.00;62.30
48589;DHT22;34369;51.174;6.738;2024-03-22T08:20:41;14.10;62.20
48589;DHT22;34369;51.174;6.738;2024-03-22T08:23:13;14.10;62.40
48589;DHT22;34369;51.174;6.738;2024-03-22T08:25:49;14.10;62.30
48589;DHT22;34369;51.174;6.738;2024-03-22T08:28:21;14.10;61.90
48589;DHT22;34369;51.174;6.738;2024-03-22T08:30:55;14.10;61.80
48589;DHT22;34369;51.174;6.738;2024-03-22T08:33:29;14.10;61.70
48589;DHT22;34369;51.174;6.738;2024-03-22T08:36:03;14.10;61.90
48589;DHT22;34369;51.174;6.738;2024-03-22T08:38:38;14.10;62.10
48589;DHT22;34369;51.174;6.738;2024-03-22T08:41:12;14.10;62.00
48589;DHT22;34369;51.174;6.738;2024-03-22T08:43:44;14.20;61.80
48589;DHT22;34369;51.174;6.738;2024-03-22T08:46:18;14.20;61.90
48589;DHT22;34369;51.174;6.738;2024-03-22T08:48:54;14.20;61.90
48589;DHT22;34369;51.174;6.738;2024-03-22T08:51:28;14.30;61.20
48589;DHT22;34369;51.174;6.738;2024-03-22T08:54:01;14.30;61.50
48589;DHT22;34369;51.174;6.738;2024-03-22T08:56:35;14.40;61.10
48589;DHT22;34369;51.174;6.738;2024-03-22T08:59:07;14.40;61.30
48589;DHT22;34369;51.174;6.738;2024-03-22T09:01:42;14.50;61.50
48589;DHT22;34369;51.174;6.738;2024-03-22T09:04:16;14.50;61.20
48589;DHT22;34369;51.174;6.738;2024-03-22T09:06:50;14.60;61.20
48589;DHT22;34369;51.174;6.738;2024-03-22T09:09:23;14.70;60.70
48589;DHT22;34369;51.174;6.738;2024-03-22T09:11:56;14.80;60.60
48589;DHT22;34369;51.174;6.738;2024-03-22T09:14:28;14.90;60.30
48589;DHT22;34369;51.174;6.738;2024-03-22T09:17:03;14.90;60.10
48589;DHT22;34369;51.174;6.738;2024-03-22T09:19:37;15.00;59.70
48589;DHT22;34369;51.174;6.738;2024-03-22T09:22:15;15.00;59.90
48589;DHT22;34369;51.174;6.738;2024-03-22T09:24:49;15.00;59.80
48589;DHT22;34369;51.174;6.738;2024-03-22T09:27:22;15.00;59.20
48589;DHT22;34369;51.174;6.738;2024-03-22T09:29:57;15.10;59.20
48589;DHT22;34369;51.174;6.738;2024-03-22T09:32:29;15.10;59.10
48589;DHT22;34369;51.174;6.738;2024-03-22T09:35:06;15.20;58.70
48589;DHT22;34369;51.174;6.738;2024-03-22T09:37:38;15.30;58.40
48589;DHT22;34369;51.174;6.738;2024-03-22T09:40:12;15.30;58.30
48589;DHT22;34369;51.174;6.738;2024-03-22T09:42:47;15.30;58.20
48589;DHT22;34369;51.174;6.738;2024-03-22T09:45:22;15.40;57.40
48589;DHT22;34369;51.174;6.738;2024-03-22T09:47:55;15.50;57.70
48589;DHT22;34369;51.174;6.738;2024-03-22T09:50:33;15.50;57.20
48589;DHT22;34369;51.174;6.738;2024-03-22T09:53:07;15.50;56.90
48589;DHT22;34369;51.174;6.738;2024-03-22T09:55:41;15.50;57.10
48589;DHT22;34369;51.174;6.738;2024-03-22T09:58:15;15.50;56.80
48589;DHT22;34369;51.174;6.738;2024-03-22T10:00:49;15.50;56.80
48589;DHT22;34369;51.174;6.738;2024-03-22T10:03:22;15.50;56.80
48589;DHT22;34369;51.174;6.738;2024-03-22T10:05:56;15.50;56.80
48589;DHT22;34369;51.174;6.738;2024-03-22T10:08:30;15.50;56.50
48589;DHT22;34369;51.174;6.738;2024-03-22T10:11:04;15.50;56.60
48589;DHT22;34369;51.174;6.738;2024-03-22T10:13:36;15.40;56.50
48589;DHT22;34369;51.174;6.738;2024-03-22T10:16:11;15.30;56.40
48589;DHT22;34369;51.174;6.738;2024-03-22T10:18:44;15.30;56.60
48589;DHT22;34369;51.174;6.738;2024-03-22T10:21:20;15.30;56.50
48589;DHT22;34369;51.174;6.738;2024-03-22T10:23:53;15.20;56.50
48589;DHT22;34369;51.174;6.738;2024-03-22T10:26:27;15.20;56.60
48589;DHT22;34369;51.174;6.738;2024-03-22T10:29:00;15.10;56.70
48589;DHT22;34369;51.174;6.738;2024-03-22T10:31:35;15.10;56.80
48589;DHT22;34369;51.174;6.738;2024-03-22T10:34:08;15.10;57.40
48589;DHT22;34369;51.174;6.738;2024-03-22T10:36:46;15.00;57.30
48589;DHT22;34369;51.174;6.738;2024-03-22T10:39:19;15.00;57.30
48589;DHT22;34369;51.174;6.738;2024-03-22T10:41:54;15.10;57.40
48589;DHT22;34369;51.174;6.738;2024-03-22T10:44:27;15.10;57.30
48589;DHT22;34369;51.174;6.738;2024-03-22T10:47:05;15.10;57.40
48589;DHT22;34369;51.174;6.738;2024-03-22T10:49:39;15.10;57.20
48589;DHT22;34369;51.174;6.738;2024-03-22T10:52:14;15.10;57.20
48589;DHT22;34369;51.174;6.738;2024-03-22T10:54:48;15.10;57.10
48589;DHT22;34369;51.174;6.738;2024-03-22T10:57:23;15.10;56.90
48589;DHT22;34369;51.174;6.738;2024-03-22T10:59:55;15.10;56.60
48589;DHT22;34369;51.174;6.738;2024-03-22T11:02:29;15.10;56.90
48589;DHT22;34369;51.174;6.738;2024-03-22T11:05:02;15.10;56.60
48589;DHT22;34369;51.174;6.738;2024-03-22T11:07:38;15.10;56.80
48589;DHT22;34369;51.174;6.738;2024-03-22T11:10:12;15.10;56.60
48589;DHT22;34369;51.174;6.738;2024-03-22T11:12:46;15.20;56.20
48589;DHT22;34369;51.174;6.738;2024-03-22T11:15:23;15.20;56.00
48589;DHT22;34369;51.174;6.738;2024-03-22T11:17:57;15.20;56.40
48589;DHT22;34369;51.174;6.738;2024-03-22T11:20:30;15.20;56.70
48589;DHT22;34369;51.174;6.738;2024-03-22T11:23:07;15.30;56.80
48589;DHT22;34369;51.174;6.738;2024-03-22T11:25:41;15.30;57.00
48589;DHT22;34369;51.174;6.738;2024-03-22T11:28:16;15.30;56.80
48589;DHT22;34369;51.174;6.738;2024-03-22T11:30:51;15.30;56.10
48589;DHT22;34369;51.174;6.738;2024-03-22T11:33:25;15.30;56.10
48589;DHT22;34369;51.174;6.738;2024-03-22T11:35:58;15.30;56.00
48589;DHT22;34369;51.174;6.738;2024-03-22T11:38:33;15.40;55.80
48589;DHT22;34369;51.174;6.738;2024-03-22T11:41:06;15.40;55.00
48589;DHT22;34369;51.174;6.738;2024-03-22T11:43:41;15.50;54.70
48589;DHT22;34369;51.174;6.738;2024-03-22T11:46:13;15.50;54.60
48589;DHT22;34369;51.174;6.738;2024-03-22T11:48:51;15.50;55.00
48589;DHT22;34369;51.174;6.738;2024-03-22T11:51:26;15.50;54.90
48589;DHT22;34369;51.174;6.738;2024-03-22T11:54:03;15.50;55.40
48589;DHT22;34369;51.174;6.738;2024-03-22T11:56:40;15.60;55.30
48589;DHT22;34369;51.174;6.738;2024-03-22T11:59:12;15.70;55.30
48589;DHT22;34369;51.174;6.738;2024-03-22T12:01:46;15.70;55.10
48589;DHT22;34369;51.174;6.738;2024-03-22T12:04:19;15.80;55.00
48589;DHT22;34369;51.174;6.738;2024-03-22T12:06:53;15.80;54.20
48589;DHT22;34369;51.174;6.738;2024-03-22T12:09:30;15.90;54.30
48589;DHT22;34369;51.174;6.738;2024-03-22T12:12:05;15.90;54.20
48589;DHT22;34369;51.174;6.738;2024-03-22T12:14:38;15.90;53.90
48589;DHT22;34369;51.174;6.738;2024-03-22T12:17:13;15.90;53.90
48589;DHT22;34369;51.174;6.738;2024-03-22T12:19:47;15.80;54.10
48589;DHT22;34369;51.174;6.738;2024-03-22T12:22:21;15.80;54.20
48589;DHT22;34369;51.174;6.738;2024-03-22T12:24:58;15.80;54.40
48589;DHT22;34369;51.174;6.738;2024-03-22T12:27:32;15.80;54.60
48589;DHT22;34369;51.174;6.738;2024-03-22T12:30:07;15.90;54.90
48589;DHT22;34369;51.174;6.738;2024-03-22T12:32:41;15.90;55.00
48589;DHT22;34369;51.174;6.738;2024-03-22T12:35:13;15.90;54.60
48589;DHT22;34369;51.174;6.738;2024-03-22T12:37:48;15.90;54.60
48589;DHT22;34369;51.174;6.738;2024-03-22T12:40:22;15.90;54.50
48589;DHT22;34369;51.174;6.738;2024-03-22T12:42:55;15.90;54.30
48589;DHT22;34369;51.174;6.738;2024-03-22T12:45:28;15.90;54.30
48589;DHT22;34369;51.174;6.738;2024-03-22T12:48:01;15.80;54.40
48589;DHT22;34369;51.174;6.738;2024-03-22T12:50:33;15.70;54.70
48589;DHT22;34369;51.174;6.738;2024-03-22T12:53:09;15.70;54.60
48589;DHT22;34369;51.174;6.738;2024-03-22T12:55:43;15.60;54.60
48589;DHT22;34369;51.174;6.738;2024-03-22T12:58:17;15.60;54.60
48589;DHT22;34369;51.174;6.738;2024-03-22T13:00:49;15.50;54.70
48589;DHT22;34369;51.174;6.738;2024-03-22T13:03:24;15.50;54.70
48589;DHT22;34369;51.174;6.738;2024-03-22T13:05:56;15.50;54.80
48589;DHT22;34369;51.174;6.738;2024-03-22T13:08:30;15.50;54.80
48589;DHT22;34369;51.174;6.738;2024-03-22T13:11:05;15.40;54.70
48589;DHT22;34369;51.174;6.738;2024-03-22T13:13:41;15.30;54.80
48589;DHT22;34369;51.174;6.738;2024-03-22T13:16:15;15.30;55.00
48589;DHT22;34369;51.174;6.738;2024-03-22T13:18:49;15.30;55.20
48589;DHT22;34369;51.174;6.738;2024-03-22T13:21:24;15.20;55.50
48589;DHT22;34369;51.174;6.738;2024-03-22T13:23:58;15.10;55.40
48589;DHT22;34369;51.174;6.738;2024-03-22T13:26:34;15.10;55.60
48589;DHT22;34369;51.174;6.738;2024-03-22T13:29:07;15.10;55.50
48589;DHT22;34369;51.174;6.738;2024-03-22T13:31:40;15.10;55.50
48589;DHT22;34369;51.174;6.738;2024-03-22T13:34:12;15.10;55.10
48589;DHT22;34369;51.174;6.738;2024-03-22T13:36:46;15.00;55.40
48589;DHT22;34369;51.174;6.738;2024-03-22T13:39:18;15.00;55.70
48589;DHT22;34369;51.174;6.738;2024-03-22T13:41:57;15.00;55.40
48589;DHT22;34369;51.174;6.738;2024-03-22T13:44:32;14.90;55.20
48589;DHT22;34369;51.174;6.738;2024-03-22T13:47:08;14.90;55.20
48589;DHT22;34369;51.174;6.738;2024-03-22T13:49:40;14.80;55.50
48589;DHT22;34369;51.174;6.738;2024-03-22T13:52:14;14.70;55.50
48589;DHT22;34369;51.174;6.738;2024-03-22T13:54:46;14.70;55.60
48589;DHT22;34369;51.174;6.738;2024-03-22T13:57:23;14.70;55.70
48589;DHT22;34369;51.174;6.738;2024-03-22T13:59:57;14.60;55.70
48589;DHT22;34369;51.174;6.738;2024-03-22T14:02:34;14.50;55.80
48589;DHT22;34369;51.174;6.738;2024-03-22T14:05:06;14.50;56.00
48589;DHT22;34369;51.174;6.738;2024-03-22T14:07:40;14.40;56.20
48589;DHT22;34369;51.174;6.738;2024-03-22T14:10:13;14.40;56.20
48589;DHT22;34369;51.174;6.738;2024-03-22T14:12:49;14.40;56.20
48589;DHT22;34369;51.174;6.738;2024-03-22T14:15:24;14.30;56.50
48589;DHT22;34369;51.174;6.738;2024-03-22T14:18:02;14.20;56.60
48589;DHT22;34369;51.174;6.738;2024-03-22T14:20:35;14.20;56.50
48589;DHT22;34369;51.174;6.738;2024-03-22T14:23:08;14.10;56.60
48589;DHT22;34369;51.174;6.738;2024-03-22T14:25:42;14.10;56.80
48589;DHT22;34369;51.174;6.738;2024-03-22T14:28:19;14.10;57.00
48589;DHT22;34369;51.174;6.738;2024-03-22T14:30:54;14.10;57.20
48589;DHT22;34369;51.174;6.738;2024-03-22T14:33:27;14.00;57.30
48589;DHT22;34369;51.174;6.738;2024-03-22T14:36:02;14.00;57.30
48589;DHT22;34369;51.174;6.738;2024-03-22T14:38:37;14.00;57.00
48589;DHT22;34369;51.174;6.738;2024-03-22T14:41:13;14.00;57.10
48589;DHT22;34369;51.174;6.738;2024-03-22T14:43:47;13.90;56.90
48589;DHT22;34369;51.174;6.738;2024-03-22T14:46:21;13.90;57.10
48589;DHT22;34369;51.174;6.738;2024-03-22T14:48:55;13.90;57.20
48589;DHT22;34369;51.174;6.738;2024-03-22T14:51:30;13.90;57.30
48589;DHT22;34369;51.174;6.738;2024-03-22T14:54:03;13.80;57.30
48589;DHT22;34369;51.174;6.738;2024-03-22T14:56:37;13.80;57.30
48589;DHT22;34369;51.174;6.738;2024-03-22T14:59:10;13.80;57.30
48589;DHT22;34369;51.174;6.738;2024-03-22T15:01:45;13.70;57.20
48589;DHT22;34369;51.174;6.738;2024-03-22T15:04:18;13.70;57.10
48589;DHT22;34369;51.174;6.738;2024-03-22T15:06:52;13.60;57.10
48589;DHT22;34369;51.174;6.738;2024-03-22T15:09:25;13.60;57.20
48589;DHT22;34369;51.174;6.738;2024-03-22T15:11:59;13.50;57.10
48589;DHT22;34369;51.174;6.738;2024-03-22T15:14:33;13.50;57.20
48589;DHT22;34369;51.174;6.738;2024-03-22T15:17:06;13.50;57.20
48589;DHT22;34369;51.174;6.738;2024-03-22T15:19:39;13.40;57.30
48589;DHT22;34369;51.174;6.738;2024-03-22T15:22:48;13.30;57.40
48589;DHT22;34369;51.174;6.738;2024-03-22T15:34:01;13.20;58.40
48589;DHT22;34369;51.174;6.738;2024-03-22T15:37:51;13.10;58.90
48589;DHT22;34369;51.174;6.738;2024-03-22T15:41:25;13.00;59.30
48589;DHT22;34369;51.174;6.738;2024-03-22T17:17:15;11.20;66.00
48589;DHT22;34369;51.174;6.738;2024-03-22T17:20:31;11.10;66.20
48589;DHT22;34369;51.174;6.738;2024-03-22T17:23:49;11.10;66.20
48589;DHT22;34369;51.174;6.738;2024-03-22T17:34:40;11.00;66.80
48589;DHT22;34369;51.174;6.738;2024-03-22T17:37:59;11.00;67.30
48589;DHT22;34369;51.174;6.738;2024-03-22T17:41:26;11.00;67.00
48589;DHT22;34369;51.174;6.738;2024-03-22T17:44:34;11.00;67.60
48589;DHT22;34369;51.174;6.738;2024-03-22T17:47:49;11.00;67.20
48589;DHT22;34369;51.174;6.738;2024-03-22T17:55:32;11.00;67.90
48589;DHT22;34369;51.174;6.738;2024-03-22T17:58:45;11.00;68.00
48589;DHT22;34369;51.174;6.738;2024-03-22T18:09:24;11.00;68.00
48589;DHT22;34369;51.174;6.738;2024-03-22T18:16:59;11.00;68.10
48589;DHT22;34369;51.174;6.738;2024-03-22T18:23:29;11.00;68.00
48589;DHT22;34369;51.174;6.738;2024-03-22T18:30:01;10.80;68.20
48589;DHT22;34369;51.174;6.738;2024-03-22T18:33:42;10.80;68.20
48589;DHT22;34369;51.174;6.738;2024-03-22T19:12:37;10.50;69.20
48589;DHT22;34369;51.174;6.738;2024-03-22T19:22:46;10.50;69.30